createdAt,value
2018-12-08T00:02:07.339Z,5.90
2018-12-08T00:04:35.830Z,5.90
2018-12-08T00:07:04.346Z,5.80
2018-12-08T00:09:32.761Z,5.80
2018-12-08T00:12:01.181Z,5.80
2018-12-08T00:14:29.586Z,5.80
2018-12-08T00:16:57.957Z,5.70
2018-12-08T00:19:26.355Z,5.60
2018-12-08T00:21:54.739Z,5.60
2018-12-08T00:24:23.139Z,5.60
2018-12-08T00:26:51.510Z,5.50
2018-12-08T00:29:19.911Z,5.50
2018-12-08T00:31:48.296Z,5.50
2018-12-08T00:34:16.703Z,5.50
2018-12-08T00:36:45.252Z,5.40
2018-12-08T00:39:13.666Z,5.40
2018-12-08T00:41:42.042Z,5.40
2018-12-08T00:44:10.446Z,5.40
2018-12-08T00:46:38.827Z,5.30
2018-12-08T00:49:07.258Z,5.30
2018-12-08T00:51:35.644Z,5.30
2018-12-08T00:54:06.930Z,5.30
2018-12-08T00:56:36.103Z,5.40
2018-12-08T00:59:04.646Z,5.30
2018-12-08T01:01:33.033Z,5.30
2018-12-08T01:04:01.692Z,5.30
2018-12-08T01:06:30.204Z,5.30
2018-12-08T01:08:58.621Z,5.30
2018-12-08T01:11:27.242Z,5.30
2018-12-08T01:13:55.654Z,5.30
2018-12-08T01:16:24.171Z,5.30
2018-12-08T01:18:52.994Z,5.30
2018-12-08T01:21:21.410Z,5.30
2018-12-08T01:23:49.898Z,5.30
2018-12-08T01:26:18.323Z,5.40
2018-12-08T01:28:46.715Z,5.50
2018-12-08T01:31:15.136Z,5.50
2018-12-08T01:33:43.538Z,5.50
2018-12-08T01:36:11.970Z,5.50
2018-12-08T01:38:40.362Z,5.50
2018-12-08T01:41:08.772Z,5.40
2018-12-08T01:43:37.170Z,5.40
2018-12-08T01:46:05.592Z,5.40
2018-12-08T01:48:34.022Z,5.40
2018-12-08T01:51:02.429Z,5.30
2018-12-08T01:53:30.814Z,5.30
2018-12-08T01:55:59.254Z,5.30
2018-12-08T01:58:27.638Z,5.30
2018-12-08T02:00:56.058Z,5.30
2018-12-08T02:03:24.445Z,5.30
2018-12-08T02:05:52.857Z,5.30
2018-12-08T02:08:21.313Z,5.30
2018-12-08T02:10:49.723Z,5.40
2018-12-08T02:13:18.123Z,5.40
2018-12-08T02:15:46.543Z,5.40
2018-12-08T02:18:14.958Z,5.50
2018-12-08T02:20:43.373Z,5.50
2018-12-08T02:23:11.774Z,5.60
2018-12-08T02:25:40.300Z,5.60
2018-12-08T02:28:08.718Z,5.70
2018-12-08T02:30:37.144Z,5.70
2018-12-08T02:33:05.594Z,5.70
2018-12-08T02:35:34.056Z,5.70
2018-12-08T02:38:02.563Z,5.80
2018-12-08T02:40:30.962Z,5.80
2018-12-08T02:42:59.378Z,5.80
2018-12-08T02:45:27.771Z,5.80
2018-12-08T02:47:56.190Z,5.80
2018-12-08T02:50:24.675Z,5.80
2018-12-08T02:52:53.091Z,5.80
2018-12-08T02:55:21.489Z,5.80
2018-12-08T02:57:49.899Z,5.80
2018-12-08T03:00:18.311Z,5.70
2018-12-08T03:02:46.726Z,5.60
2018-12-08T03:05:15.239Z,5.60
2018-12-08T03:07:43.658Z,5.50
2018-12-08T03:10:12.087Z,5.50
2018-12-08T03:12:40.498Z,5.40
2018-12-08T03:15:09.045Z,5.40
2018-12-08T03:17:37.488Z,5.40
2018-12-08T03:20:06.076Z,5.30
2018-12-08T03:22:34.528Z,5.30
2018-12-08T03:25:02.933Z,5.30
2018-12-08T03:27:31.366Z,5.30
2018-12-08T03:29:59.794Z,5.30
2018-12-08T03:32:28.236Z,5.30
2018-12-08T03:34:56.862Z,5.30
2018-12-08T03:37:25.298Z,5.20
2018-12-08T03:39:53.710Z,5.20
2018-12-08T03:42:22.566Z,5.10
2018-12-08T03:44:50.970Z,5.10
2018-12-08T03:47:19.411Z,5.10
2018-12-08T03:49:47.834Z,5.00
2018-12-08T03:52:16.302Z,5.00
2018-12-08T03:54:44.699Z,5.00
2018-12-08T03:57:13.115Z,5.00
2018-12-08T03:59:41.542Z,5.00
2018-12-08T04:02:10.063Z,5.00
2018-12-08T04:04:38.490Z,5.00
2018-12-08T04:07:07.025Z,5.00
2018-12-08T04:09:35.441Z,5.00
2018-12-08T04:12:03.840Z,5.00
2018-12-08T04:14:32.270Z,5.00
2018-12-08T04:17:00.672Z,4.90
2018-12-08T04:19:29.098Z,4.90
2018-12-08T04:21:57.490Z,4.90
2018-12-08T04:24:25.972Z,4.80
2018-12-08T04:26:54.379Z,4.80
2018-12-08T04:29:22.803Z,4.70
2018-12-08T04:31:51.209Z,4.70
2018-12-08T04:34:19.635Z,4.70
2018-12-08T04:36:48.040Z,4.70
2018-12-08T04:39:16.456Z,4.70
2018-12-08T04:41:59.501Z,4.70
2018-12-08T04:44:27.934Z,4.80
2018-12-08T04:46:56.363Z,4.80
2018-12-08T04:49:24.805Z,4.80
2018-12-08T04:51:53.210Z,4.80
2018-12-08T04:54:21.622Z,4.90
2018-12-08T04:56:50.014Z,4.90
2018-12-08T04:59:18.443Z,4.90
2018-12-08T05:01:46.850Z,4.90
2018-12-08T05:04:15.266Z,5.00
2018-12-08T05:06:43.661Z,5.00
2018-12-08T05:09:12.054Z,5.00
2018-12-08T05:11:40.461Z,5.00
2018-12-08T05:14:08.854Z,5.00
2018-12-08T05:16:37.269Z,5.10
2018-12-08T05:19:05.657Z,5.10
2018-12-08T05:21:34.082Z,5.20
2018-12-08T05:24:02.481Z,5.20
2018-12-08T05:26:30.893Z,5.20
2018-12-08T05:28:59.291Z,5.10
2018-12-08T05:31:27.729Z,5.10
2018-12-08T05:33:56.217Z,5.00
2018-12-08T05:36:24.640Z,5.00
2018-12-08T05:38:53.038Z,4.90
2018-12-08T05:41:21.445Z,5.00
2018-12-08T05:43:49.845Z,5.00
2018-12-08T05:46:18.263Z,5.00
2018-12-08T05:48:46.688Z,5.00
2018-12-08T05:51:15.122Z,5.10
2018-12-08T05:53:43.539Z,5.10
2018-12-08T05:56:11.973Z,5.20
2018-12-08T05:58:40.377Z,5.20
2018-12-08T06:01:08.818Z,5.20
2018-12-08T06:03:37.273Z,5.20
2018-12-08T06:06:05.683Z,5.20
2018-12-08T06:08:34.114Z,5.20
2018-12-08T06:11:02.598Z,5.30
2018-12-08T06:13:31.018Z,5.30
2018-12-08T06:15:59.447Z,5.40
2018-12-08T06:18:27.857Z,5.40
2018-12-08T06:20:56.337Z,5.40
2018-12-08T06:23:24.755Z,5.40
2018-12-08T06:25:53.532Z,5.50
2018-12-08T06:28:26.827Z,5.50
2018-12-08T06:30:55.693Z,5.50
2018-12-08T06:33:24.128Z,5.50
2018-12-08T06:35:52.554Z,5.40
2018-12-08T06:38:21.086Z,5.40
2018-12-08T06:40:49.510Z,5.40
2018-12-08T06:43:18.986Z,5.40
2018-12-08T06:45:47.435Z,5.40
2018-12-08T06:48:15.910Z,5.30
2018-12-08T06:50:44.447Z,5.30
2018-12-08T06:53:12.927Z,5.20
2018-12-08T06:55:41.369Z,5.10
2018-12-08T06:58:09.826Z,5.00
2018-12-08T07:00:38.289Z,5.00
2018-12-08T07:03:06.761Z,5.00
2018-12-08T07:05:35.295Z,5.00
2018-12-08T07:08:03.767Z,5.00
2018-12-08T07:10:32.245Z,5.00
2018-12-08T07:13:00.844Z,5.00
2018-12-08T07:15:29.399Z,5.00
2018-12-08T07:17:57.918Z,5.10
2018-12-08T07:20:26.519Z,5.10
2018-12-08T07:22:55.022Z,5.10
2018-12-08T07:25:23.491Z,5.10
2018-12-08T07:27:51.970Z,5.10
2018-12-08T07:30:20.538Z,5.10
2018-12-08T07:32:49.023Z,5.10
2018-12-08T07:35:17.482Z,5.10
2018-12-08T07:37:46.042Z,5.10
2018-12-08T07:40:14.507Z,5.10
2018-12-08T07:42:42.975Z,5.10
2018-12-08T07:45:11.579Z,5.10
2018-12-08T07:47:40.028Z,5.20
2018-12-08T07:50:09.522Z,5.10
2018-12-08T07:52:37.957Z,5.10
2018-12-08T07:55:07.414Z,5.00
2018-12-08T07:57:35.856Z,5.00
2018-12-08T08:00:07.357Z,5.00
2018-12-08T08:02:35.862Z,5.00
2018-12-08T08:05:04.533Z,4.90
2018-12-08T08:07:32.950Z,4.90
2018-12-08T08:10:01.398Z,4.90
2018-12-08T08:12:29.802Z,4.90
2018-12-08T08:14:58.242Z,4.80
2018-12-08T08:17:26.646Z,4.80
2018-12-08T08:19:55.086Z,4.90
2018-12-08T08:22:23.546Z,4.90
2018-12-08T08:24:52.002Z,4.90
2018-12-08T08:27:20.410Z,4.90
2018-12-08T08:29:48.846Z,4.90
2018-12-08T08:32:17.295Z,4.90
2018-12-08T08:34:45.810Z,4.90
2018-12-08T08:37:14.227Z,5.00
2018-12-08T08:39:42.666Z,5.00
2018-12-08T08:42:11.079Z,5.00
2018-12-08T08:44:39.643Z,5.00
2018-12-08T08:47:08.045Z,5.00
2018-12-08T08:49:36.502Z,5.00
2018-12-08T08:52:04.906Z,5.00
2018-12-08T08:54:33.301Z,5.00
2018-12-08T08:57:01.741Z,5.00
2018-12-08T08:59:30.146Z,5.00
2018-12-08T09:01:58.557Z,5.00
2018-12-08T09:04:26.957Z,5.00
2018-12-08T09:06:55.381Z,5.10
2018-12-08T09:09:23.774Z,5.00
2018-12-08T09:11:52.189Z,5.00
2018-12-08T09:14:20.582Z,5.00
2018-12-08T09:16:48.993Z,5.00
2018-12-08T09:19:17.429Z,5.00
2018-12-08T09:21:45.836Z,5.00
2018-12-08T09:24:14.230Z,5.00
2018-12-08T09:26:42.659Z,4.90
2018-12-08T09:29:11.049Z,5.00
2018-12-08T09:31:39.470Z,5.00
2018-12-08T09:34:07.873Z,5.00
2018-12-08T09:36:36.333Z,5.00
2018-12-08T09:39:06.559Z,5.10
2018-12-08T09:41:34.979Z,5.00
2018-12-08T09:44:03.866Z,5.00
2018-12-08T09:46:32.321Z,5.00
2018-12-08T09:49:00.745Z,5.00
2018-12-08T09:51:29.263Z,5.00
2018-12-08T09:53:57.681Z,5.00
2018-12-08T09:56:26.105Z,5.10
2018-12-08T09:58:54.510Z,5.10
2018-12-08T10:01:22.949Z,5.10
2018-12-08T10:03:51.750Z,5.10
2018-12-08T10:06:20.183Z,5.10
2018-12-08T10:08:48.607Z,5.10
2018-12-08T10:11:17.096Z,5.20
2018-12-08T10:13:45.538Z,5.10
2018-12-08T10:16:13.947Z,5.10
2018-12-08T10:18:42.374Z,5.10
2018-12-08T10:21:10.786Z,5.10
2018-12-08T10:23:39.219Z,5.10
2018-12-08T10:26:07.629Z,5.10
2018-12-08T10:28:36.066Z,5.10
2018-12-08T10:31:04.705Z,5.10
2018-12-08T10:33:33.265Z,5.10
2018-12-08T10:36:01.679Z,5.10
2018-12-08T10:38:30.150Z,5.10
2018-12-08T10:40:58.639Z,5.20
2018-12-08T10:43:27.066Z,5.20
2018-12-08T10:45:55.543Z,5.20
2018-12-08T10:48:23.987Z,5.20
2018-12-08T10:50:52.416Z,5.20
2018-12-08T10:53:20.848Z,5.30
2018-12-08T10:55:49.254Z,5.30
2018-12-08T10:58:17.687Z,5.40
2018-12-08T11:00:51.278Z,5.40
2018-12-08T11:03:25.109Z,5.40
2018-12-08T11:05:53.525Z,5.30
2018-12-08T11:08:21.994Z,5.30
2018-12-08T11:10:50.607Z,5.40
2018-12-08T11:13:58.281Z,5.30
2018-12-08T11:16:26.697Z,5.30
2018-12-08T11:18:55.142Z,5.30
2018-12-08T11:21:23.569Z,5.30
2018-12-08T11:23:52.105Z,5.30
2018-12-08T11:26:20.522Z,5.30
2018-12-08T11:28:48.964Z,5.30
2018-12-08T11:31:17.391Z,5.30
2018-12-08T11:33:45.825Z,5.40
2018-12-08T11:36:14.245Z,5.40
2018-12-08T11:38:42.678Z,5.40
2018-12-08T11:41:11.087Z,5.40
2018-12-08T11:43:39.698Z,5.40
2018-12-08T11:46:08.123Z,5.40
2018-12-08T11:48:37.424Z,5.40
2018-12-08T11:51:08.710Z,5.50
2018-12-08T11:53:45.382Z,5.50
2018-12-08T11:56:19.887Z,5.50
2018-12-08T11:58:53.531Z,5.60
2018-12-08T12:01:21.922Z,5.60
2018-12-08T12:03:50.342Z,5.60
2018-12-08T12:06:18.763Z,5.60
2018-12-08T12:08:47.214Z,5.60
2018-12-08T12:11:15.610Z,5.60
2018-12-08T12:13:44.038Z,5.60
2018-12-08T12:16:12.570Z,5.70
2018-12-08T12:18:41.096Z,5.70
2018-12-08T12:21:09.515Z,5.80
2018-12-08T12:23:37.958Z,5.70
2018-12-08T12:26:06.498Z,5.80
2018-12-08T12:28:34.910Z,5.70
2018-12-08T12:31:03.340Z,5.70
2018-12-08T12:33:31.737Z,5.70
2018-12-08T12:36:00.182Z,5.70
2018-12-08T12:38:28.596Z,5.70
2018-12-08T12:40:57.034Z,5.80
2018-12-08T12:43:25.434Z,5.80
2018-12-08T12:45:53.849Z,5.80
2018-12-08T12:48:22.262Z,5.90
2018-12-08T12:50:50.821Z,5.90
2018-12-08T12:53:21.247Z,5.90
2018-12-08T12:55:49.702Z,5.90
2018-12-08T12:58:18.224Z,5.90
2018-12-08T13:00:46.638Z,6.00
2018-12-08T13:03:15.049Z,6.00
2018-12-08T13:05:43.465Z,6.00
2018-12-08T13:08:11.878Z,6.00
2018-12-08T13:10:40.319Z,6.10
2018-12-08T13:13:08.722Z,6.10
2018-12-08T13:15:37.221Z,6.20
2018-12-08T13:18:05.637Z,6.30
2018-12-08T13:20:34.070Z,6.30
2018-12-08T13:23:02.523Z,6.30
2018-12-08T13:25:30.957Z,6.30
2018-12-08T13:27:59.372Z,6.30
2018-12-08T13:30:27.806Z,6.30
2018-12-08T13:32:56.229Z,6.30
2018-12-08T13:36:01.347Z,6.30
2018-12-08T13:38:29.829Z,6.30
2018-12-08T13:40:58.293Z,6.30
2018-12-08T13:43:26.713Z,6.30
2018-12-08T13:45:55.247Z,6.30
2018-12-08T13:48:25.814Z,6.30
2018-12-08T13:50:54.607Z,6.30
2018-12-08T13:53:23.026Z,6.30
2018-12-08T13:55:51.467Z,6.30
2018-12-08T13:58:19.886Z,6.30
2018-12-08T14:00:48.355Z,6.30
2018-12-08T14:03:16.894Z,6.30
2018-12-08T14:05:45.317Z,6.30
2018-12-08T14:08:13.753Z,6.30
2018-12-08T14:10:42.194Z,6.40
2018-12-08T14:13:10.637Z,6.30
2018-12-08T14:15:39.058Z,6.40
2018-12-08T14:18:07.493Z,6.40
2018-12-08T14:20:35.978Z,6.40
2018-12-08T14:23:04.416Z,6.40
2018-12-08T14:25:32.841Z,6.40
2018-12-08T14:28:01.290Z,6.50
2018-12-08T14:30:29.710Z,6.50
2018-12-08T14:32:58.178Z,6.50
2018-12-08T14:35:26.593Z,6.50
2018-12-08T14:37:55.033Z,6.60
2018-12-08T14:40:23.451Z,6.60
2018-12-08T14:42:51.890Z,6.60
2018-12-08T14:45:20.438Z,6.60
2018-12-08T14:47:48.917Z,6.60
2018-12-08T14:50:17.353Z,6.60
2018-12-08T14:52:45.786Z,6.70
2018-12-08T14:55:14.199Z,6.70
2018-12-08T14:57:42.642Z,6.70
2018-12-08T15:00:12.847Z,6.70
2018-12-08T15:02:41.414Z,6.60
2018-12-08T15:05:10.996Z,6.60
2018-12-08T15:07:39.601Z,6.70
2018-12-08T15:10:10.445Z,6.70
2018-12-08T15:12:39.037Z,6.70
2018-12-08T15:15:08.950Z,6.70
2018-12-08T15:17:37.379Z,6.70
2018-12-08T15:20:07.549Z,6.70
2018-12-08T15:22:35.962Z,6.70
2018-12-08T15:25:05.151Z,6.70
2018-12-08T15:27:33.602Z,6.70
2018-12-08T15:30:02.033Z,6.70
2018-12-08T15:32:30.459Z,6.70
2018-12-08T15:34:58.917Z,6.70
2018-12-08T15:37:27.365Z,6.70
2018-12-08T15:39:55.802Z,6.70
2018-12-08T15:42:24.210Z,6.80
2018-12-08T15:44:52.641Z,6.70
2018-12-08T15:47:21.059Z,6.80
2018-12-08T15:49:49.498Z,6.70
2018-12-08T15:52:17.897Z,6.70
2018-12-08T15:54:46.309Z,6.70
2018-12-08T15:57:14.709Z,6.80
2018-12-08T15:59:43.127Z,6.80
2018-12-08T16:02:11.527Z,6.80
2018-12-08T16:04:39.940Z,6.80
2018-12-08T16:07:08.353Z,6.80
2018-12-08T16:09:36.793Z,6.80
2018-12-08T16:12:05.186Z,6.80
2018-12-08T16:14:33.602Z,6.80
2018-12-08T16:17:01.998Z,6.70
2018-12-08T16:19:30.418Z,6.70
2018-12-08T16:21:59.246Z,6.70
2018-12-08T16:24:27.658Z,6.70
2018-12-08T16:26:56.066Z,6.70
2018-12-08T16:29:24.461Z,6.60
2018-12-08T16:31:52.887Z,6.70
2018-12-08T16:34:21.281Z,6.70
2018-12-08T16:36:49.835Z,6.70
2018-12-08T16:39:18.235Z,6.70
2018-12-08T16:41:46.680Z,6.80
2018-12-08T16:44:15.073Z,6.80
2018-12-08T16:46:43.616Z,6.80
2018-12-08T16:49:12.034Z,6.80
2018-12-08T16:51:40.459Z,6.80
2018-12-08T16:54:08.969Z,6.80
2018-12-08T16:56:37.454Z,6.80
2018-12-08T16:59:05.858Z,6.70
2018-12-08T17:01:34.397Z,6.70
2018-12-08T17:04:02.806Z,6.70
2018-12-08T17:06:31.234Z,6.70
2018-12-08T17:08:59.626Z,6.80
2018-12-08T17:11:28.041Z,6.80
2018-12-08T17:13:56.438Z,6.80
2018-12-08T17:16:24.867Z,6.80
2018-12-08T17:18:53.461Z,6.80
2018-12-08T17:21:21.885Z,6.80
2018-12-08T17:23:50.300Z,6.70
2018-12-08T17:26:18.861Z,6.70
2018-12-08T17:28:47.258Z,6.60
2018-12-08T17:31:15.749Z,6.60
2018-12-08T17:33:44.163Z,6.50
2018-12-08T17:36:12.601Z,6.60
2018-12-08T17:38:41.027Z,6.60
2018-12-08T17:41:09.553Z,6.60
2018-12-08T17:43:38.098Z,6.60
2018-12-08T17:46:06.624Z,6.60
2018-12-08T17:48:35.077Z,6.60
2018-12-08T17:51:03.482Z,6.60
2018-12-08T17:53:32.037Z,6.60
2018-12-08T17:56:00.461Z,6.60
2018-12-08T17:58:28.889Z,6.60
2018-12-08T18:00:57.335Z,6.70
2018-12-08T18:03:25.778Z,6.70
2018-12-08T18:05:54.222Z,6.70
2018-12-08T18:08:22.660Z,6.80
2018-12-08T18:10:51.099Z,6.80
2018-12-08T18:13:19.554Z,6.90
2018-12-08T18:15:47.989Z,6.90
2018-12-08T18:18:16.470Z,6.90
2018-12-08T18:20:44.894Z,6.90
2018-12-08T18:23:13.334Z,6.90
2018-12-08T18:25:41.765Z,7.00
2018-12-08T18:28:10.219Z,7.00
2018-12-08T18:30:38.678Z,7.00
2018-12-08T18:33:07.116Z,7.00
2018-12-08T18:35:35.542Z,6.90
2018-12-08T18:38:03.983Z,6.90
2018-12-08T18:40:32.394Z,6.90
2018-12-08T18:43:00.846Z,6.90
2018-12-08T18:45:29.301Z,6.90
2018-12-08T18:47:57.731Z,6.80
2018-12-08T18:50:26.190Z,6.80
2018-12-08T18:52:54.618Z,6.80
2018-12-08T18:55:23.256Z,6.70
2018-12-08T18:57:52.023Z,6.70
2018-12-08T19:00:20.465Z,6.70
2018-12-08T19:02:48.885Z,6.60
2018-12-08T19:05:17.322Z,6.60
2018-12-08T19:07:45.854Z,6.60
2018-12-08T19:10:14.415Z,6.60
2018-12-08T19:12:42.825Z,6.60
2018-12-08T19:15:11.412Z,6.50
2018-12-08T19:17:39.839Z,6.50
2018-12-08T19:20:08.406Z,6.50
2018-12-08T19:22:36.946Z,6.50
2018-12-08T19:25:05.936Z,6.50
2018-12-08T19:27:34.357Z,6.50
2018-12-08T19:30:02.827Z,6.60
2018-12-08T19:32:31.242Z,6.60
2018-12-08T19:34:59.686Z,6.60
2018-12-08T19:37:28.218Z,6.60
2018-12-08T19:39:56.661Z,6.70
2018-12-08T19:42:25.072Z,6.70
2018-12-08T19:44:53.513Z,6.70
2018-12-08T19:47:21.926Z,6.70
2018-12-08T19:49:50.377Z,6.70
2018-12-08T19:52:18.788Z,6.80
2018-12-08T19:54:47.564Z,6.80
2018-12-08T19:57:15.998Z,6.80
2018-12-08T19:59:44.418Z,6.80
2018-12-08T20:02:12.846Z,6.80
2018-12-08T20:04:41.406Z,6.80
2018-12-08T20:07:09.846Z,6.80
2018-12-08T20:09:38.266Z,6.80
2018-12-08T20:12:06.833Z,6.80
2018-12-08T20:14:35.494Z,6.80
2018-12-08T20:17:03.933Z,6.80
2018-12-08T20:19:32.353Z,6.80
2018-12-08T20:22:00.777Z,6.80
2018-12-08T20:24:29.194Z,6.70
2018-12-08T20:26:57.622Z,6.70
2018-12-08T20:29:26.045Z,6.70
2018-12-08T20:31:54.505Z,6.70
2018-12-08T20:34:22.917Z,6.70
2018-12-08T20:36:51.345Z,6.70
2018-12-08T20:39:20.694Z,6.70
2018-12-08T20:41:49.126Z,6.70
2018-12-08T20:44:17.525Z,6.70
2018-12-08T20:46:45.954Z,6.70
2018-12-08T20:49:14.425Z,6.70
2018-12-08T20:51:42.949Z,6.70
2018-12-08T20:54:11.645Z,6.70
2018-12-08T20:56:40.215Z,6.60
2018-12-08T20:59:08.635Z,6.60
2018-12-08T21:01:37.078Z,6.60
2018-12-08T21:04:05.514Z,6.60
2018-12-08T21:06:34.040Z,6.50
2018-12-08T21:09:02.591Z,6.50
2018-12-08T21:11:31.031Z,6.60
2018-12-08T21:13:59.494Z,6.60
2018-12-08T21:16:27.906Z,6.50
2018-12-08T21:18:56.399Z,6.50
2018-12-08T21:21:24.819Z,6.60
2018-12-08T21:23:53.254Z,6.50
2018-12-08T21:26:21.885Z,6.50
2018-12-08T21:28:50.326Z,6.50
2018-12-08T21:31:18.744Z,6.50
2018-12-08T21:33:47.182Z,6.50
2018-12-08T21:36:15.642Z,6.50
2018-12-08T21:38:45.097Z,6.60
2018-12-08T21:41:13.973Z,6.60
2018-12-08T21:43:42.435Z,6.60
2018-12-08T21:46:10.955Z,6.60
2018-12-08T21:48:39.473Z,6.60
2018-12-08T21:51:07.882Z,6.60
2018-12-08T21:53:36.302Z,6.70
2018-12-08T21:56:04.827Z,6.70
2018-12-08T21:58:33.246Z,6.70
2018-12-08T22:01:01.658Z,6.70
2018-12-08T22:03:30.150Z,6.70
2018-12-08T22:05:58.562Z,6.70
2018-12-08T22:08:27.026Z,6.70
2018-12-08T22:10:55.470Z,6.70
2018-12-08T22:13:23.927Z,6.70
2018-12-08T22:15:52.369Z,6.70
2018-12-08T22:18:20.782Z,6.80
2018-12-08T22:20:49.226Z,6.70
2018-12-08T22:23:17.729Z,6.80
2018-12-08T22:25:46.163Z,6.70
2018-12-08T22:28:14.626Z,6.70
2018-12-08T22:30:43.065Z,6.70
2018-12-08T22:33:11.470Z,6.80
2018-12-08T22:35:39.902Z,6.70
2018-12-08T22:38:08.298Z,6.70
2018-12-08T22:40:36.767Z,6.80
2018-12-08T22:43:05.168Z,6.80
2018-12-08T22:45:33.614Z,6.80
2018-12-08T22:48:02.142Z,6.90
2018-12-08T22:50:30.603Z,6.90
2018-12-08T22:53:03.700Z,6.90
2018-12-08T22:55:32.296Z,6.90
2018-12-08T22:58:00.703Z,7.00
2018-12-08T23:00:46.750Z,7.00
2018-12-08T23:03:15.209Z,7.00
2018-12-08T23:05:43.757Z,7.00
2018-12-08T23:08:12.290Z,7.10
2018-12-08T23:10:40.698Z,7.10
2018-12-08T23:13:09.246Z,7.10
2018-12-08T23:15:37.779Z,7.10
2018-12-08T23:18:06.213Z,7.10
2018-12-08T23:20:34.753Z,7.10
2018-12-08T23:23:03.190Z,7.20
2018-12-08T23:25:31.659Z,7.20
2018-12-08T23:28:00.090Z,7.20
2018-12-08T23:30:28.627Z,7.30
2018-12-08T23:32:57.066Z,7.30
2018-12-08T23:35:26.497Z,7.30
2018-12-08T23:37:54.925Z,7.30
2018-12-08T23:40:23.343Z,7.30
2018-12-08T23:42:51.898Z,7.30
2018-12-08T23:45:20.410Z,7.30
2018-12-08T23:47:48.857Z,7.30
2018-12-08T23:50:17.307Z,7.40
2018-12-08T23:52:45.723Z,7.40
2018-12-08T23:55:14.146Z,7.40
2018-12-08T23:57:42.571Z,7.40
